sensor_id;sensor_type;location;lat;lon;timestamp;P1;durP1;ratioP1;P2;durP2;ratioP2
6243;SDS011;3155;49.940;8.450;2024-01-11T00:01:14;170.18;;;161.52;;
6243;SDS011;3155;49.940;8.450;2024-01-11T00:03:41;179.88;;;170.77;;
6243;SDS011;3155;49.940;8.450;2024-01-11T00:06:08;167.23;;;158.77;;
6243;SDS011;3155;49.940;8.450;2024-01-11T00:08:36;169.95;;;161.40;;
6243;SDS011;3155;49.940;8.450;2024-01-11T00:11:03;131.35;;;124.60;;
6243;SDS011;3155;49.940;8.450;2024-01-11T00:13:31;113.78;;;107.93;;
6243;SDS011;3155;49.940;8.450;2024-01-11T00:15:58;145.63;;;138.10;;
6243;SDS011;3155;49.940;8.450;2024-01-11T00:18:25;156.50;;;148.65;;
6243;SDS011;3155;49.940;8.450;2024-01-11T00:20:52;158.50;;;150.55;;
6243;SDS011;3155;49.940;8.450;2024-01-11T00:23:26;137.82;;;130.77;;
6243;SDS011;3155;49.940;8.450;2024-01-11T00:25:53;149.50;;;142.00;;
6243;SDS011;3155;49.940;8.450;2024-01-11T00:28:20;144.45;;;137.13;;
6243;SDS011;3155;49.940;8.450;2024-01-11T00:30:47;153.57;;;145.67;;
6243;SDS011;3155;49.940;8.450;2024-01-11T00:33:14;103.75;;;98.35;;
6243;SDS011;3155;49.940;8.450;2024-01-11T00:35:42;109.28;;;103.15;;
6243;SDS011;3155;49.940;8.450;2024-01-11T00:38:09;130.55;;;123.75;;
6243;SDS011;3155;49.940;8.450;2024-01-11T00:40:36;187.80;;;178.27;;
6243;SDS011;3155;49.940;8.450;2024-01-11T00:43:04;198.05;;;187.80;;
6243;SDS011;3155;49.940;8.450;2024-01-11T00:45:31;200.68;;;190.35;;
6243;SDS011;3155;49.940;8.450;2024-01-11T00:48:00;208.70;;;197.80;;
6243;SDS011;3155;49.940;8.450;2024-01-11T00:50:29;204.43;;;193.93;;
6243;SDS011;3155;49.940;8.450;2024-01-11T00:52:56;212.43;;;201.45;;
6243;SDS011;3155;49.940;8.450;2024-01-11T00:55:23;230.30;;;218.38;;
6243;SDS011;3155;49.940;8.450;2024-01-11T00:57:50;196.65;;;186.38;;
6243;SDS011;3155;49.940;8.450;2024-01-11T01:00:18;204.63;;;194.10;;
6243;SDS011;3155;49.940;8.450;2024-01-11T01:02:45;205.27;;;194.63;;
6243;SDS011;3155;49.940;8.450;2024-01-11T01:05:12;206.32;;;195.57;;
6243;SDS011;3155;49.940;8.450;2024-01-11T01:07:40;202.13;;;191.73;;
6243;SDS011;3155;49.940;8.450;2024-01-11T01:10:07;208.85;;;197.88;;
6243;SDS011;3155;49.940;8.450;2024-01-11T01:12:35;202.73;;;192.27;;
6243;SDS011;3155;49.940;8.450;2024-01-11T01:15:02;199.05;;;188.73;;
6243;SDS011;3155;49.940;8.450;2024-01-11T01:17:29;196.77;;;186.60;;
6243;SDS011;3155;49.940;8.450;2024-01-11T01:19:57;219.77;;;208.60;;
6243;SDS011;3155;49.940;8.450;2024-01-11T01:22:26;189.35;;;179.65;;
6243;SDS011;3155;49.940;8.450;2024-01-11T01:24:53;187.70;;;178.07;;
6243;SDS011;3155;49.940;8.450;2024-01-11T01:27:20;183.63;;;174.23;;
6243;SDS011;3155;49.940;8.450;2024-01-11T01:29:47;188.27;;;178.55;;
6243;SDS011;3155;49.940;8.450;2024-01-11T01:32:15;187.67;;;177.97;;
6243;SDS011;3155;49.940;8.450;2024-01-11T01:34:47;183.02;;;173.65;;
6243;SDS011;3155;49.940;8.450;2024-01-11T01:37:14;179.48;;;170.25;;
6243;SDS011;3155;49.940;8.450;2024-01-11T01:39:42;184.65;;;174.00;;
6243;SDS011;3155;49.940;8.450;2024-01-11T01:42:09;174.57;;;165.57;;
6243;SDS011;3155;49.940;8.450;2024-01-11T01:44:36;177.02;;;167.52;;
6243;SDS011;3155;49.940;8.450;2024-01-11T01:47:07;170.95;;;162.18;;
6243;SDS011;3155;49.940;8.450;2024-01-11T01:49:35;165.18;;;156.70;;
6243;SDS011;3155;49.940;8.450;2024-01-11T01:52:06;161.52;;;153.25;;
6243;SDS011;3155;49.940;8.450;2024-01-11T01:54:34;152.55;;;144.75;;
6243;SDS011;3155;49.940;8.450;2024-01-11T01:57:01;68.10;;;63.70;;
6243;SDS011;3155;49.940;8.450;2024-01-11T01:59:30;92.57;;;87.63;;
6243;SDS011;3155;49.940;8.450;2024-01-11T02:01:57;155.23;;;147.20;;
6243;SDS011;3155;49.940;8.450;2024-01-11T02:04:25;155.60;;;147.73;;
6243;SDS011;3155;49.940;8.450;2024-01-11T02:06:53;152.60;;;144.73;;
6243;SDS011;3155;49.940;8.450;2024-01-11T02:09:21;153.82;;;145.95;;
6243;SDS011;3155;49.940;8.450;2024-01-11T02:11:51;155.63;;;147.70;;
6243;SDS011;3155;49.940;8.450;2024-01-11T02:14:20;204.90;;;194.52;;
6243;SDS011;3155;49.940;8.450;2024-01-11T02:16:49;178.50;;;169.32;;
6243;SDS011;3155;49.940;8.450;2024-01-11T02:19:17;184.05;;;174.65;;
6243;SDS011;3155;49.940;8.450;2024-01-11T02:21:49;179.68;;;169.95;;
6243;SDS011;3155;49.940;8.450;2024-01-11T02:24:19;194.32;;;182.18;;
6243;SDS011;3155;49.940;8.450;2024-01-11T02:27:07;185.20;;;175.75;;
6243;SDS011;3155;49.940;8.450;2024-01-11T02:29:36;190.55;;;180.82;;
6243;SDS011;3155;49.940;8.450;2024-01-11T02:32:04;191.27;;;180.15;;
6243;SDS011;3155;49.940;8.450;2024-01-11T02:34:35;181.03;;;171.73;;
6243;SDS011;3155;49.940;8.450;2024-01-11T02:37:04;194.50;;;184.48;;
6243;SDS011;3155;49.940;8.450;2024-01-11T02:39:31;189.03;;;179.33;;
6243;SDS011;3155;49.940;8.450;2024-01-11T02:41:59;191.07;;;181.25;;
6243;SDS011;3155;49.940;8.450;2024-01-11T02:44:26;177.35;;;168.25;;
6243;SDS011;3155;49.940;8.450;2024-01-11T02:46:55;195.90;;;185.80;;
6243;SDS011;3155;49.940;8.450;2024-01-11T02:49:22;170.07;;;161.00;;
6243;SDS011;3155;49.940;8.450;2024-01-11T02:51:49;167.10;;;158.30;;
6243;SDS011;3155;49.940;8.450;2024-01-11T02:54:16;171.48;;;162.45;;
6243;SDS011;3155;49.940;8.450;2024-01-11T02:56:45;174.50;;;165.52;;
6243;SDS011;3155;49.940;8.450;2024-01-11T02:59:12;168.40;;;159.48;;
6243;SDS011;3155;49.940;8.450;2024-01-11T03:01:39;152.82;;;144.60;;
6243;SDS011;3155;49.940;8.450;2024-01-11T03:04:06;159.05;;;150.52;;
6243;SDS011;3155;49.940;8.450;2024-01-11T03:06:36;161.38;;;152.88;;
6243;SDS011;3155;49.940;8.450;2024-01-11T03:09:04;179.05;;;169.60;;
6243;SDS011;3155;49.940;8.450;2024-01-11T03:11:31;176.85;;;166.52;;
6243;SDS011;3155;49.940;8.450;2024-01-11T03:14:01;164.82;;;156.02;;
6243;SDS011;3155;49.940;8.450;2024-01-11T03:16:29;172.30;;;163.38;;
6243;SDS011;3155;49.940;8.450;2024-01-11T03:18:56;205.88;;;195.27;;
6243;SDS011;3155;49.940;8.450;2024-01-11T03:21:23;176.00;;;165.20;;
6243;SDS011;3155;49.940;8.450;2024-01-11T03:23:51;187.50;;;177.75;;
6243;SDS011;3155;49.940;8.450;2024-01-11T03:26:18;169.52;;;160.60;;
6243;SDS011;3155;49.940;8.450;2024-01-11T03:28:48;184.00;;;174.37;;
6243;SDS011;3155;49.940;8.450;2024-01-11T03:31:15;185.48;;;175.80;;
6243;SDS011;3155;49.940;8.450;2024-01-11T03:33:42;193.05;;;183.07;;
6243;SDS011;3155;49.940;8.450;2024-01-11T03:36:16;181.70;;;172.20;;
6243;SDS011;3155;49.940;8.450;2024-01-11T03:38:43;167.95;;;159.13;;
6243;SDS011;3155;49.940;8.450;2024-01-11T03:41:11;188.95;;;179.20;;
6243;SDS011;3155;49.940;8.450;2024-01-11T03:43:39;161.10;;;152.52;;
6243;SDS011;3155;49.940;8.450;2024-01-11T03:46:06;180.60;;;171.15;;
6243;SDS011;3155;49.940;8.450;2024-01-11T03:48:33;174.55;;;165.35;;
6243;SDS011;3155;49.940;8.450;2024-01-11T03:51:04;179.45;;;170.15;;
6243;SDS011;3155;49.940;8.450;2024-01-11T03:53:36;184.13;;;174.48;;
6243;SDS011;3155;49.940;8.450;2024-01-11T03:56:04;189.95;;;179.98;;
6243;SDS011;3155;49.940;8.450;2024-01-11T03:58:32;188.10;;;178.27;;
6243;SDS011;3155;49.940;8.450;2024-01-11T04:00:59;181.27;;;171.73;;
6243;SDS011;3155;49.940;8.450;2024-01-11T04:03:27;154.18;;;145.88;;
6243;SDS011;3155;49.940;8.450;2024-01-11T04:05:54;113.85;;;107.40;;
6243;SDS011;3155;49.940;8.450;2024-01-11T04:08:22;165.05;;;156.18;;
6243;SDS011;3155;49.940;8.450;2024-01-11T04:10:49;149.38;;;141.40;;
6243;SDS011;3155;49.940;8.450;2024-01-11T04:13:16;154.70;;;146.60;;
6243;SDS011;3155;49.940;8.450;2024-01-11T04:15:43;119.95;;;113.72;;
6243;SDS011;3155;49.940;8.450;2024-01-11T04:18:11;126.25;;;119.75;;
6243;SDS011;3155;49.940;8.450;2024-01-11T04:20:40;132.93;;;125.93;;
6243;SDS011;3155;49.940;8.450;2024-01-11T04:23:07;158.95;;;149.48;;
6243;SDS011;3155;49.940;8.450;2024-01-11T04:25:35;144.45;;;137.02;;
6243;SDS011;3155;49.940;8.450;2024-01-11T04:28:05;126.13;;;119.35;;
6243;SDS011;3155;49.940;8.450;2024-01-11T04:30:32;145.60;;;138.10;;
6243;SDS011;3155;49.940;8.450;2024-01-11T04:32:59;149.88;;;142.05;;
6243;SDS011;3155;49.940;8.450;2024-01-11T04:35:27;105.90;;;99.93;;
6243;SDS011;3155;49.940;8.450;2024-01-11T04:37:54;146.40;;;138.27;;
6243;SDS011;3155;49.940;8.450;2024-01-11T04:40:21;144.30;;;136.85;;
6243;SDS011;3155;49.940;8.450;2024-01-11T04:42:48;142.15;;;134.82;;
6243;SDS011;3155;49.940;8.450;2024-01-11T04:45:15;100.18;;;94.53;;
6243;SDS011;3155;49.940;8.450;2024-01-11T04:47:42;115.97;;;109.57;;
6243;SDS011;3155;49.940;8.450;2024-01-11T04:50:10;124.25;;;117.43;;
6243;SDS011;3155;49.940;8.450;2024-01-11T04:52:37;137.23;;;129.93;;
6243;SDS011;3155;49.940;8.450;2024-01-11T04:55:07;138.90;;;131.43;;
6243;SDS011;3155;49.940;8.450;2024-01-11T04:57:34;135.73;;;128.50;;
6243;SDS011;3155;49.940;8.450;2024-01-11T05:00:01;138.82;;;131.35;;
6243;SDS011;3155;49.940;8.450;2024-01-11T05:02:29;141.15;;;132.98;;
6243;SDS011;3155;49.940;8.450;2024-01-11T05:04:57;132.52;;;125.40;;
6243;SDS011;3155;49.940;8.450;2024-01-11T05:07:24;127.60;;;120.78;;
6243;SDS011;3155;49.940;8.450;2024-01-11T05:09:51;136.27;;;128.98;;
6243;SDS011;3155;49.940;8.450;2024-01-11T05:12:21;138.85;;;131.40;;
6243;SDS011;3155;49.940;8.450;2024-01-11T05:14:48;128.13;;;121.20;;
6243;SDS011;3155;49.940;8.450;2024-01-11T05:17:18;133.55;;;126.43;;
6243;SDS011;3155;49.940;8.450;2024-01-11T05:19:45;133.18;;;126.07;;
6243;SDS011;3155;49.940;8.450;2024-01-11T05:22:12;134.93;;;127.53;;
6243;SDS011;3155;49.940;8.450;2024-01-11T05:24:40;125.47;;;118.63;;
6243;SDS011;3155;49.940;8.450;2024-01-11T05:27:07;129.45;;;122.35;;
6243;SDS011;3155;49.940;8.450;2024-01-11T05:29:34;144.63;;;136.77;;
6243;SDS011;3155;49.940;8.450;2024-01-11T05:32:01;137.63;;;130.27;;
6243;SDS011;3155;49.940;8.450;2024-01-11T05:34:28;143.95;;;136.02;;
6243;SDS011;3155;49.940;8.450;2024-01-11T05:36:56;154.13;;;146.10;;
6243;SDS011;3155;49.940;8.450;2024-01-11T05:39:26;144.60;;;136.95;;
6243;SDS011;3155;49.940;8.450;2024-01-11T05:41:53;137.90;;;130.52;;
6243;SDS011;3155;49.940;8.450;2024-01-11T05:44:21;154.30;;;146.05;;
6243;SDS011;3155;49.940;8.450;2024-01-11T05:46:48;144.02;;;136.57;;
6243;SDS011;3155;49.940;8.450;2024-01-11T05:49:16;150.43;;;142.57;;
6243;SDS011;3155;49.940;8.450;2024-01-11T05:51:45;145.70;;;137.93;;
6243;SDS011;3155;49.940;8.450;2024-01-11T05:54:12;152.90;;;144.77;;
6243;SDS011;3155;49.940;8.450;2024-01-11T05:56:40;140.95;;;133.50;;
6243;SDS011;3155;49.940;8.450;2024-01-11T05:59:07;143.40;;;135.77;;
6243;SDS011;3155;49.940;8.450;2024-01-11T06:01:39;148.20;;;140.32;;
6243;SDS011;3155;49.940;8.450;2024-01-11T06:04:07;139.00;;;131.63;;
6243;SDS011;3155;49.940;8.450;2024-01-11T06:06:34;140.77;;;133.23;;
6243;SDS011;3155;49.940;8.450;2024-01-11T06:09:04;145.88;;;138.18;;
6243;SDS011;3155;49.940;8.450;2024-01-11T06:11:31;136.85;;;129.52;;
6243;SDS011;3155;49.940;8.450;2024-01-11T06:13:59;178.47;;;163.53;;
6243;SDS011;3155;49.940;8.450;2024-01-11T06:16:30;142.55;;;134.95;;
6243;SDS011;3155;49.940;8.450;2024-01-11T06:18:57;144.43;;;136.73;;
6243;SDS011;3155;49.940;8.450;2024-01-11T06:21:25;139.45;;;131.90;;
6243;SDS011;3155;49.940;8.450;2024-01-11T06:23:52;149.52;;;141.75;;
6243;SDS011;3155;49.940;8.450;2024-01-11T06:26:19;139.37;;;131.77;;
6243;SDS011;3155;49.940;8.450;2024-01-11T06:28:47;143.10;;;135.55;;
6243;SDS011;3155;49.940;8.450;2024-01-11T06:31:16;149.10;;;140.30;;
6243;SDS011;3155;49.940;8.450;2024-01-11T06:33:44;153.88;;;145.85;;
6243;SDS011;3155;49.940;8.450;2024-01-11T06:36:16;145.18;;;137.50;;
6243;SDS011;3155;49.940;8.450;2024-01-11T06:38:46;145.00;;;137.35;;
6243;SDS011;3155;49.940;8.450;2024-01-11T06:41:13;158.23;;;149.90;;
6243;SDS011;3155;49.940;8.450;2024-01-11T06:43:41;155.93;;;147.80;;
6243;SDS011;3155;49.940;8.450;2024-01-11T06:46:08;148.75;;;140.98;;
6243;SDS011;3155;49.940;8.450;2024-01-11T06:48:36;156.35;;;148.15;;
6243;SDS011;3155;49.940;8.450;2024-01-11T06:51:04;153.65;;;145.70;;
6243;SDS011;3155;49.940;8.450;2024-01-11T06:53:32;155.05;;;146.98;;
6243;SDS011;3155;49.940;8.450;2024-01-11T06:55:59;157.52;;;149.35;;
6243;SDS011;3155;49.940;8.450;2024-01-11T06:58:26;164.00;;;155.60;;
6243;SDS011;3155;49.940;8.450;2024-01-11T07:00:56;151.18;;;143.38;;
6243;SDS011;3155;49.940;8.450;2024-01-11T07:03:27;160.85;;;152.52;;
6243;SDS011;3155;49.940;8.450;2024-01-11T07:05:54;149.65;;;141.88;;
6243;SDS011;3155;49.940;8.450;2024-01-11T07:08:22;164.85;;;156.50;;
6243;SDS011;3155;49.940;8.450;2024-01-11T07:10:49;154.18;;;146.18;;
6243;SDS011;3155;49.940;8.450;2024-01-11T07:13:17;165.10;;;156.60;;
6243;SDS011;3155;49.940;8.450;2024-01-11T07:15:44;167.35;;;158.77;;
6243;SDS011;3155;49.940;8.450;2024-01-11T07:18:12;172.23;;;163.38;;
6243;SDS011;3155;49.940;8.450;2024-01-11T07:20:39;172.63;;;163.75;;
6243;SDS011;3155;49.940;8.450;2024-01-11T07:23:06;167.27;;;158.73;;
6243;SDS011;3155;49.940;8.450;2024-01-11T07:25:33;166.52;;;158.05;;
6243;SDS011;3155;49.940;8.450;2024-01-11T07:28:01;173.45;;;164.55;;
6243;SDS011;3155;49.940;8.450;2024-01-11T07:30:28;90.97;;;85.72;;
6243;SDS011;3155;49.940;8.450;2024-01-11T07:32:55;88.28;;;83.03;;
6243;SDS011;3155;49.940;8.450;2024-01-11T07:35:23;156.95;;;148.80;;
6243;SDS011;3155;49.940;8.450;2024-01-11T07:37:52;163.07;;;154.68;;
6243;SDS011;3155;49.940;8.450;2024-01-11T07:40:20;164.98;;;156.45;;
6243;SDS011;3155;49.940;8.450;2024-01-11T07:42:47;166.50;;;157.93;;
6243;SDS011;3155;49.940;8.450;2024-01-11T07:45:16;167.20;;;158.70;;
6243;SDS011;3155;49.940;8.450;2024-01-11T07:47:43;133.35;;;126.10;;
6243;SDS011;3155;49.940;8.450;2024-01-11T07:50:10;139.60;;;132.17;;
6243;SDS011;3155;49.940;8.450;2024-01-11T07:52:38;144.45;;;136.45;;
6243;SDS011;3155;49.940;8.450;2024-01-11T07:55:09;152.77;;;144.40;;
6243;SDS011;3155;49.940;8.450;2024-01-11T07:57:39;150.10;;;141.93;;
6243;SDS011;3155;49.940;8.450;2024-01-11T08:00:06;125.95;;;119.13;;
6243;SDS011;3155;49.940;8.450;2024-01-11T08:02:34;106.00;;;99.88;;
6243;SDS011;3155;49.940;8.450;2024-01-11T08:05:04;89.18;;;83.50;;
6243;SDS011;3155;49.940;8.450;2024-01-11T08:07:35;106.10;;;100.07;;
6243;SDS011;3155;49.940;8.450;2024-01-11T08:10:08;117.53;;;110.70;;
6243;SDS011;3155;49.940;8.450;2024-01-11T08:12:39;108.10;;;102.00;;
6243;SDS011;3155;49.940;8.450;2024-01-11T08:15:06;107.70;;;101.40;;
6243;SDS011;3155;49.940;8.450;2024-01-11T08:17:37;113.53;;;106.95;;
6243;SDS011;3155;49.940;8.450;2024-01-11T08:20:06;116.95;;;110.20;;
6243;SDS011;3155;49.940;8.450;2024-01-11T08:22:34;114.78;;;108.20;;
6243;SDS011;3155;49.940;8.450;2024-01-11T08:25:02;103.47;;;97.45;;
6243;SDS011;3155;49.940;8.450;2024-01-11T08:27:31;110.45;;;104.28;;
6243;SDS011;3155;49.940;8.450;2024-01-11T08:29:59;109.80;;;103.50;;
6243;SDS011;3155;49.940;8.450;2024-01-11T08:32:26;111.72;;;105.28;;
6243;SDS011;3155;49.940;8.450;2024-01-11T08:35:01;114.97;;;108.55;;
6243;SDS011;3155;49.940;8.450;2024-01-11T08:37:30;117.60;;;111.00;;
6243;SDS011;3155;49.940;8.450;2024-01-11T08:39:58;90.38;;;85.25;;
6243;SDS011;3155;49.940;8.450;2024-01-11T08:42:25;110.63;;;104.57;;
6243;SDS011;3155;49.940;8.450;2024-01-11T08:44:52;109.25;;;101.93;;
6243;SDS011;3155;49.940;8.450;2024-01-11T08:47:19;113.82;;;107.32;;
6243;SDS011;3155;49.940;8.450;2024-01-11T08:49:50;118.15;;;111.47;;
6243;SDS011;3155;49.940;8.450;2024-01-11T08:52:17;109.90;;;103.55;;
6243;SDS011;3155;49.940;8.450;2024-01-11T08:54:44;122.88;;;115.82;;
6243;SDS011;3155;49.940;8.450;2024-01-11T08:57:11;102.47;;;96.80;;
6243;SDS011;3155;49.940;8.450;2024-01-11T08:59:38;109.10;;;103.13;;
6243;SDS011;3155;49.940;8.450;2024-01-11T09:02:06;116.67;;;109.87;;
6243;SDS011;3155;49.940;8.450;2024-01-11T09:04:43;108.93;;;102.65;;
6243;SDS011;3155;49.940;8.450;2024-01-11T09:07:10;105.03;;;99.05;;
6243;SDS011;3155;49.940;8.450;2024-01-11T09:09:37;126.07;;;119.07;;
6243;SDS011;3155;49.940;8.450;2024-01-11T09:12:19;135.88;;;128.07;;
6243;SDS011;3155;49.940;8.450;2024-01-11T09:14:46;120.88;;;113.97;;
6243;SDS011;3155;49.940;8.450;2024-01-11T09:17:13;136.13;;;127.93;;
6243;SDS011;3155;49.940;8.450;2024-01-11T09:19:40;135.93;;;126.43;;
6243;SDS011;3155;49.940;8.450;2024-01-11T09:22:11;140.85;;;132.45;;
6243;SDS011;3155;49.940;8.450;2024-01-11T09:24:38;140.35;;;131.85;;
6243;SDS011;3155;49.940;8.450;2024-01-11T09:27:06;143.88;;;135.43;;
6243;SDS011;3155;49.940;8.450;2024-01-11T09:29:33;147.80;;;138.73;;
6243;SDS011;3155;49.940;8.450;2024-01-11T09:32:03;139.47;;;130.67;;
6243;SDS011;3155;49.940;8.450;2024-01-11T09:34:34;125.47;;;117.67;;
6243;SDS011;3155;49.940;8.450;2024-01-11T09:37:02;127.45;;;118.88;;
6243;SDS011;3155;49.940;8.450;2024-01-11T09:39:29;102.77;;;97.00;;
6243;SDS011;3155;49.940;8.450;2024-01-11T09:41:58;122.35;;;115.30;;
6243;SDS011;3155;49.940;8.450;2024-01-11T09:44:25;122.63;;;115.68;;
6243;SDS011;3155;49.940;8.450;2024-01-11T09:46:53;126.25;;;118.70;;
6243;SDS011;3155;49.940;8.450;2024-01-11T09:49:22;135.55;;;127.30;;
6243;SDS011;3155;49.940;8.450;2024-01-11T09:51:56;124.43;;;117.30;;
6243;SDS011;3155;49.940;8.450;2024-01-11T09:54:23;132.20;;;124.78;;
6243;SDS011;3155;49.940;8.450;2024-01-11T09:56:52;122.68;;;115.03;;
6243;SDS011;3155;49.940;8.450;2024-01-11T09:59:20;122.15;;;113.72;;
6243;SDS011;3155;49.940;8.450;2024-01-11T10:01:51;119.60;;;112.70;;
6243;SDS011;3155;49.940;8.450;2024-01-11T10:04:19;124.20;;;117.00;;
6243;SDS011;3155;49.940;8.450;2024-01-11T10:06:46;131.88;;;124.28;;
6243;SDS011;3155;49.940;8.450;2024-01-11T10:09:14;136.88;;;128.88;;
6243;SDS011;3155;49.940;8.450;2024-01-11T10:11:42;128.77;;;121.05;;
6243;SDS011;3155;49.940;8.450;2024-01-11T10:14:11;123.13;;;115.87;;
6243;SDS011;3155;49.940;8.450;2024-01-11T10:16:39;124.50;;;117.28;;
6243;SDS011;3155;49.940;8.450;2024-01-11T10:19:08;131.25;;;123.63;;
6243;SDS011;3155;49.940;8.450;2024-01-11T10:21:40;121.97;;;114.75;;
6243;SDS011;3155;49.940;8.450;2024-01-11T10:24:07;118.22;;;111.53;;
6243;SDS011;3155;49.940;8.450;2024-01-11T10:26:34;120.65;;;112.93;;
6243;SDS011;3155;49.940;8.450;2024-01-11T10:29:02;113.82;;;107.03;;
6243;SDS011;3155;49.940;8.450;2024-01-11T10:31:32;134.80;;;126.25;;
6243;SDS011;3155;49.940;8.450;2024-01-11T10:34:01;121.68;;;114.60;;
6243;SDS011;3155;49.940;8.450;2024-01-11T10:36:30;122.43;;;114.82;;
6243;SDS011;3155;49.940;8.450;2024-01-11T10:38:59;111.57;;;105.38;;
6243;SDS011;3155;49.940;8.450;2024-01-11T10:41:32;121.45;;;114.07;;
6243;SDS011;3155;49.940;8.450;2024-01-11T10:43:59;129.02;;;120.82;;
6243;SDS011;3155;49.940;8.450;2024-01-11T10:46:28;112.60;;;106.10;;
6243;SDS011;3155;49.940;8.450;2024-01-11T10:48:55;92.90;;;87.47;;
6243;SDS011;3155;49.940;8.450;2024-01-11T10:51:23;89.72;;;84.22;;
6243;SDS011;3155;49.940;8.450;2024-01-11T10:53:52;110.68;;;104.20;;
6243;SDS011;3155;49.940;8.450;2024-01-11T10:56:20;110.57;;;103.95;;
6243;SDS011;3155;49.940;8.450;2024-01-11T10:58:47;101.00;;;95.20;;
6243;SDS011;3155;49.940;8.450;2024-01-11T11:01:14;110.32;;;103.97;;
6243;SDS011;3155;49.940;8.450;2024-01-11T11:03:43;106.90;;;100.80;;
6243;SDS011;3155;49.940;8.450;2024-01-11T11:06:11;113.32;;;106.82;;
6243;SDS011;3155;49.940;8.450;2024-01-11T11:08:40;110.15;;;103.95;;
6243;SDS011;3155;49.940;8.450;2024-01-11T11:11:08;100.75;;;94.93;;
6243;SDS011;3155;49.940;8.450;2024-01-11T11:13:36;105.43;;;99.38;;
6243;SDS011;3155;49.940;8.450;2024-01-11T11:16:04;99.68;;;93.93;;
6243;SDS011;3155;49.940;8.450;2024-01-11T11:18:35;104.55;;;98.80;;
6243;SDS011;3155;49.940;8.450;2024-01-11T11:21:10;103.30;;;97.38;;
6243;SDS011;3155;49.940;8.450;2024-01-11T11:23:38;100.03;;;94.32;;
6243;SDS011;3155;49.940;8.450;2024-01-11T11:26:16;110.03;;;103.93;;
6243;SDS011;3155;49.940;8.450;2024-01-11T11:28:49;131.63;;;123.90;;
6243;SDS011;3155;49.940;8.450;2024-01-11T11:34:03;107.03;;;101.05;;
6243;SDS011;3155;49.940;8.450;2024-01-11T11:36:31;108.90;;;102.72;;
6243;SDS011;3155;49.940;8.450;2024-01-11T11:39:00;98.32;;;92.75;;
6243;SDS011;3155;49.940;8.450;2024-01-11T11:41:30;101.45;;;95.68;;
6243;SDS011;3155;49.940;8.450;2024-01-11T11:44:00;125.13;;;117.90;;
6243;SDS011;3155;49.940;8.450;2024-01-11T11:46:28;115.68;;;109.35;;
6243;SDS011;3155;49.940;8.450;2024-01-11T11:48:57;113.32;;;107.03;;
6243;SDS011;3155;49.940;8.450;2024-01-11T11:51:25;116.00;;;109.32;;
6243;SDS011;3155;49.940;8.450;2024-01-11T11:53:54;121.30;;;114.55;;
6243;SDS011;3155;49.940;8.450;2024-01-11T11:56:22;120.00;;;113.18;;
6243;SDS011;3155;49.940;8.450;2024-01-11T11:58:52;126.47;;;119.53;;
6243;SDS011;3155;49.940;8.450;2024-01-11T12:01:21;122.25;;;115.70;;
6243;SDS011;3155;49.940;8.450;2024-01-11T12:03:52;107.50;;;101.30;;
6243;SDS011;3155;49.940;8.450;2024-01-11T12:06:20;105.25;;;98.95;;
6243;SDS011;3155;49.940;8.450;2024-01-11T12:08:51;124.85;;;117.75;;
6243;SDS011;3155;49.940;8.450;2024-01-11T12:11:23;115.70;;;108.78;;
6243;SDS011;3155;49.940;8.450;2024-01-11T12:13:50;121.75;;;114.88;;
6243;SDS011;3155;49.940;8.450;2024-01-11T12:16:19;114.80;;;108.27;;
6243;SDS011;3155;49.940;8.450;2024-01-11T12:18:48;124.40;;;117.30;;
6243;SDS011;3155;49.940;8.450;2024-01-11T12:21:16;117.03;;;110.20;;
6243;SDS011;3155;49.940;8.450;2024-01-11T12:23:43;129.93;;;122.50;;
6243;SDS011;3155;49.940;8.450;2024-01-11T12:26:11;125.85;;;118.47;;
6243;SDS011;3155;49.940;8.450;2024-01-11T12:28:40;119.78;;;113.03;;
6243;SDS011;3155;49.940;8.450;2024-01-11T12:31:09;118.05;;;111.25;;
6243;SDS011;3155;49.940;8.450;2024-01-11T12:33:36;131.18;;;123.07;;
6243;SDS011;3155;49.940;8.450;2024-01-11T12:36:05;106.18;;;99.95;;
6243;SDS011;3155;49.940;8.450;2024-01-11T12:38:34;128.20;;;120.78;;
6243;SDS011;3155;49.940;8.450;2024-01-11T12:41:02;112.43;;;106.03;;
6243;SDS011;3155;49.940;8.450;2024-01-11T12:43:30;121.65;;;114.43;;
6243;SDS011;3155;49.940;8.450;2024-01-11T12:45:57;117.88;;;111.00;;
6243;SDS011;3155;49.940;8.450;2024-01-11T12:48:24;126.25;;;119.57;;
6243;SDS011;3155;49.940;8.450;2024-01-11T12:50:58;116.25;;;109.70;;
6243;SDS011;3155;49.940;8.450;2024-01-11T12:53:44;118.80;;;111.68;;
6243;SDS011;3155;49.940;8.450;2024-01-11T12:56:12;109.90;;;103.78;;
6243;SDS011;3155;49.940;8.450;2024-01-11T12:58:42;110.78;;;104.72;;
6243;SDS011;3155;49.940;8.450;2024-01-11T13:01:09;114.70;;;108.30;;
6243;SDS011;3155;49.940;8.450;2024-01-11T13:03:38;111.45;;;105.15;;
6243;SDS011;3155;49.940;8.450;2024-01-11T13:06:06;118.43;;;112.03;;
6243;SDS011;3155;49.940;8.450;2024-01-11T13:08:35;125.35;;;118.43;;
6243;SDS011;3155;49.940;8.450;2024-01-11T13:11:03;112.65;;;106.50;;
6243;SDS011;3155;49.940;8.450;2024-01-11T13:13:34;125.43;;;118.55;;
6243;SDS011;3155;49.940;8.450;2024-01-11T13:16:04;125.05;;;118.13;;
6243;SDS011;3155;49.940;8.450;2024-01-11T13:18:40;113.28;;;106.55;;
6243;SDS011;3155;49.940;8.450;2024-01-11T13:21:07;106.47;;;100.50;;
6243;SDS011;3155;49.940;8.450;2024-01-11T13:23:35;94.43;;;89.10;;
6243;SDS011;3155;49.940;8.450;2024-01-11T13:26:04;113.03;;;106.78;;
6243;SDS011;3155;49.940;8.450;2024-01-11T13:28:31;114.07;;;107.53;;
6243;SDS011;3155;49.940;8.450;2024-01-11T13:30:59;141.45;;;133.43;;
6243;SDS011;3155;49.940;8.450;2024-01-11T13:33:28;144.20;;;136.77;;
6243;SDS011;3155;49.940;8.450;2024-01-11T13:35:55;148.70;;;140.93;;
6243;SDS011;3155;49.940;8.450;2024-01-11T13:38:23;139.10;;;131.63;;
6243;SDS011;3155;49.940;8.450;2024-01-11T13:40:53;155.77;;;147.40;;
6243;SDS011;3155;49.940;8.450;2024-01-11T13:43:20;112.57;;;105.82;;
6243;SDS011;3155;49.940;8.450;2024-01-11T13:45:48;100.45;;;94.65;;
6243;SDS011;3155;49.940;8.450;2024-01-11T13:48:16;99.60;;;93.90;;
6243;SDS011;3155;49.940;8.450;2024-01-11T13:50:43;108.03;;;101.97;;
6243;SDS011;3155;49.940;8.450;2024-01-11T13:53:10;94.05;;;88.85;;
6243;SDS011;3155;49.940;8.450;2024-01-11T13:55:37;111.10;;;104.68;;
6243;SDS011;3155;49.940;8.450;2024-01-11T13:58:06;116.35;;;109.03;;
6243;SDS011;3155;49.940;8.450;2024-01-11T14:00:34;123.97;;;116.78;;
6243;SDS011;3155;49.940;8.450;2024-01-11T14:03:02;116.03;;;108.93;;
6243;SDS011;3155;49.940;8.450;2024-01-11T14:05:35;114.47;;;107.93;;
6243;SDS011;3155;49.940;8.450;2024-01-11T14:08:03;113.68;;;107.20;;
6243;SDS011;3155;49.940;8.450;2024-01-11T14:10:32;122.70;;;115.80;;
6243;SDS011;3155;49.940;8.450;2024-01-11T14:12:59;113.72;;;107.32;;
6243;SDS011;3155;49.940;8.450;2024-01-11T14:15:27;124.78;;;117.75;;
6243;SDS011;3155;49.940;8.450;2024-01-11T14:18:00;116.55;;;109.90;;
6243;SDS011;3155;49.940;8.450;2024-01-11T14:20:28;109.68;;;103.47;;
6243;SDS011;3155;49.940;8.450;2024-01-11T14:22:55;100.13;;;94.40;;
6243;SDS011;3155;49.940;8.450;2024-01-11T14:25:23;100.65;;;94.90;;
6243;SDS011;3155;49.940;8.450;2024-01-11T14:27:55;107.47;;;101.38;;
6243;SDS011;3155;49.940;8.450;2024-01-11T14:30:22;103.25;;;96.97;;
6243;SDS011;3155;49.940;8.450;2024-01-11T14:32:50;109.65;;;103.43;;